TimeCDT,TemperatureF,Dew PointF,Humidity,Sea Level PressureIn,VisibilityMPH,Wind Direction,Wind SpeedMPH,Gust SpeedMPH,PrecipitationIn,Events,Conditions,WindDirDegrees,DateUTC
12:54 AM,50.0,46.0,86,29.86,10.0,NW,8.1,-,N/A,,Clear,310,2013-09-21 05:54:00
1:54 AM,48.0,45.0,89,29.87,10.0,WNW,4.6,-,N/A,,Clear,300,2013-09-21 06:54:00
2:54 AM,48.0,45.0,89,29.87,10.0,WNW,6.9,-,N/A,,Clear,300,2013-09-21 07:54:00
3:54 AM,48.0,45.0,89,29.87,10.0,WNW,6.9,-,N/A,,Mostly Cloudy,300,2013-09-21 08:54:00
4:54 AM,48.0,45.0,89,29.88,10.0,NW,5.8,-,N/A,,Overcast,310,2013-09-21 09:54:00
5:54 AM,48.9,46.0,90,29.89,10.0,NW,9.2,-,N/A,,Overcast,310,2013-09-21 10:54:00
6:54 AM,50.0,45.0,83,29.91,10.0,NW,9.2,-,N/A,,Overcast,310,2013-09-21 11:54:00
7:54 AM,50.0,43.0,77,29.92,10.0,NW,10.4,-,N/A,,Overcast,320,2013-09-21 12:54:00
8:54 AM,51.1,43.0,74,29.92,10.0,NNW,15.0,-,N/A,,Overcast,330,2013-09-21 13:54:00
9:54 AM,52.0,41.0,66,29.93,10.0,NNW,12.7,24.2,N/A,,Overcast,340,2013-09-21 14:54:00
10:54 AM,52.0,41.0,66,29.94,10.0,NNW,13.8,20.7,N/A,,Overcast,330,2013-09-21 15:54:00
11:52 AM,53.6,41.0,62,29.93,10.0,NNW,15.0,-,N/A,,Overcast,340,2013-09-21 16:52:00
11:54 AM,53.1,42.1,66,29.94,10.0,North,15.0,-,N/A,,Overcast,350,2013-09-21 16:54:00
12:09 PM,53.6,41.0,62,29.93,10.0,NW,12.7,-,N/A,,Overcast,320,2013-09-21 17:09:00
12:54 PM,54.0,42.1,64,29.95,10.0,NNW,15.0,-,N/A,,Overcast,330,2013-09-21 17:54:00
1:54 PM,55.0,42.1,62,29.95,10.0,NW,11.5,-,N/A,,Overcast,320,2013-09-21 18:54:00
2:51 PM,55.4,42.8,63,29.92,10.0,WNW,9.2,-,N/A,,Scattered Clouds,300,2013-09-21 19:51:00
2:54 PM,55.9,42.1,60,29.94,10.0,NW,11.5,-,N/A,,Scattered Clouds,310,2013-09-21 19:54:00
3:54 PM,59.0,42.1,53,29.92,10.0,NW,10.4,-,N/A,,Mostly Cloudy,310,2013-09-21 20:54:00
4:54 PM,59.0,42.1,53,29.92,10.0,NW,9.2,-,N/A,,Clear,320,2013-09-21 21:54:00
5:54 PM,57.9,42.1,56,29.92,10.0,NNW,8.1,-,N/A,,Clear,330,2013-09-21 22:54:00
6:54 PM,55.0,42.1,62,29.93,10.0,North,5.8,-,N/A,,Clear,360,2013-09-21 23:54:00
7:54 PM,51.1,42.1,71,29.94,10.0,North,4.6,-,N/A,,Clear,350,2013-09-22 00:54:00
8:54 PM,48.0,43.0,83,29.96,10.0,NNW,3.5,-,N/A,,Clear,340,2013-09-22 01:54:00
9:54 PM,46.9,42.1,83,29.97,10.0,North,3.5,-,N/A,,Clear,350,2013-09-22 02:54:00
10:54 PM,48.9,42.1,77,29.99,10.0,NE,8.1,-,N/A,,Clear,50,2013-09-22 03:54:00
11:54 PM,44.1,41.0,89,30.00,10.0,East,4.6,-,N/A,,Clear,90,2013-09-22 04:54:00